Time;durP1;ratioP1;P1;durP2;ratioP2;P2;SDS_P1;SDS_P2;PMS_P1;PMS_P2;Temp;Humidity;BMP_temperature;BMP_pressure;BME280_temperature;BME280_humidity;BME280_pressure;Samples;Min_cycle;Max_cycle;Signal;HPM_P1;HPM_P2
2022/07/21 00:01:50;;;;;;;99.25;45.05;;;17.40;99.90;;;;;;5029189;28;20028;-89
2022/07/21 00:04:16;;;;;;;93.10;44.17;;;17.30;99.90;;;;;;4998995;28;20564;-89
2022/07/21 00:06:43;;;;;;;72.93;41.63;;;17.30;99.90;;;;;;5000127;28;20030;-89
2022/07/21 00:09:09;;;;;;;79.15;44.35;;;17.30;99.90;;;;;;5016375;28;20030;-89
2022/07/21 00:11:35;;;;;;;78.45;44.65;;;17.20;99.90;;;;;;5000241;28;20038;-89
2022/07/21 00:14:01;;;;;;;79.32;45.35;;;17.20;99.90;;;;;;4999761;28;20034;-90
2022/07/21 00:16:27;;;;;;;77.82;46.20;;;17.20;99.90;;;;;;4999809;28;20061;-89
2022/07/21 00:18:53;;;;;;;87.15;47.45;;;17.20;99.90;;;;;;5015769;28;20762;-89
2022/07/21 00:21:18;;;;;;;87.80;50.05;;;17.20;99.90;;;;;;4999690;28;20037;-89
2022/07/21 00:23:44;;;;;;;88.53;51.33;;;17.10;99.90;;;;;;4999458;28;20026;-89
2022/07/21 00:26:10;;;;;;;94.00;51.10;;;17.20;99.90;;;;;;5015851;28;20033;-89
2022/07/21 00:28:36;;;;;;;88.65;49.80;;;17.10;99.90;;;;;;4999592;28;20030;-89
2022/07/21 00:31:02;;;;;;;93.75;50.67;;;17.10;99.90;;;;;;4999433;28;20405;-89
2022/07/21 00:34:11;;;;;;;126.45;65.03;;;17.10;99.90;;;;;;5015883;28;20045;-89
2022/07/21 00:36:37;;;;;;;162.90;75.75;;;17.10;99.90;;;;;;4999186;28;20432;-89
2022/07/21 00:39:03;;;;;;;178.77;80.03;;;17.20;99.90;;;;;;5015191;28;20029;-88
2022/07/21 00:41:28;;;;;;;159.02;78.30;;;17.30;99.90;;;;;;4998754;28;20044;-90
2022/07/21 00:43:54;;;;;;;165.50;75.28;;;17.20;99.90;;;;;;4998934;28;20037;-90
2022/07/21 00:46:21;;;;;;;161.68;72.95;;;17.30;99.90;;;;;;4998959;28;20036;-89
2022/07/21 00:48:47;;;;;;;168.98;75.75;;;17.20;99.90;;;;;;4998712;28;20651;-89
2022/07/21 00:51:12;;;;;;;181.05;76.40;;;17.20;99.90;;;;;;4998546;28;20034;-89
2022/07/21 00:53:38;;;;;;;183.48;74.43;;;17.20;99.90;;;;;;4998378;28;20051;-90
2022/07/21 00:56:35;;;;;;;183.20;76.75;;;17.30;99.90;;;;;;4998892;28;20853;-89
2022/07/21 00:59:02;;;;;;;153.20;69.47;;;17.30;99.90;;;;;;5015267;28;20030;-90
2022/07/21 01:01:27;;;;;;;164.38;73.25;;;17.30;99.90;;;;;;4998845;28;20066;-90
2022/07/21 01:03:53;;;;;;;154.27;73.13;;;17.30;99.90;;;;;;4998767;28;20088;-89
2022/07/21 01:06:19;;;;;;;168.70;78.20;;;17.30;99.90;;;;;;5015421;28;20029;-89
2022/07/21 01:08:45;;;;;;;173.05;75.93;;;17.30;99.90;;;;;;5015685;28;20474;-90
2022/07/21 01:11:11;;;;;;;167.07;74.35;;;17.30;99.90;;;;;;5015437;28;20461;-89
2022/07/21 01:13:41;;;;;;;158.32;71.70;;;17.30;99.90;;;;;;4998910;28;20034;-89
2022/07/21 01:16:08;;;;;;;203.15;77.50;;;17.20;99.90;;;;;;5049792;28;20028;-90
2022/07/21 01:18:34;;;;;;;183.05;79.47;;;17.20;99.90;;;;;;5017712;28;20069;-90
2022/07/21 01:21:06;;;;;;;194.07;87.88;;;17.20;99.90;;;;;;5015243;28;20038;-87
2022/07/21 01:27:19;;;;;;;237.48;98.75;;;17.30;99.90;;;;;;5016317;28;20068;-89
2022/07/21 01:29:45;;;;;;;234.90;98.05;;;17.20;99.90;;;;;;4999644;28;20030;-91
2022/07/21 01:32:11;;;;;;;262.55;104.32;;;17.30;99.90;;;;;;4998484;28;20037;-89
2022/07/21 01:34:37;;;;;;;255.68;102.85;;;17.30;99.90;;;;;;4997904;28;20512;-88
2022/07/21 01:37:02;;;;;;;258.40;104.18;;;17.40;99.90;;;;;;4997705;28;20037;-89
2022/07/21 01:42:12;;;;;;;257.75;101.15;;;17.40;99.90;;;;;;5013736;28;20087;-90
2022/07/21 01:44:38;;;;;;;248.00;102.15;;;17.40;99.90;;;;;;4997336;28;20026;-90
2022/07/21 01:47:04;;;;;;;294.13;105.30;;;17.40;99.90;;;;;;4997514;28;20087;-89
2022/07/21 01:49:29;;;;;;;263.98;104.60;;;17.40;99.90;;;;;;4997657;28;20084;-88
2022/07/21 01:51:55;;;;;;;272.00;104.82;;;17.40;99.90;;;;;;4997497;28;20037;-89
2022/07/21 01:54:21;;;;;;;249.73;101.35;;;17.30;99.90;;;;;;4997495;28;20601;-89
2022/07/21 01:56:46;;;;;;;231.88;94.43;;;17.30;99.90;;;;;;4997655;28;20065;-89
2022/07/21 01:59:12;;;;;;;239.65;98.60;;;17.30;99.90;;;;;;4997519;28;20118;-89
2022/07/21 02:01:38;;;;;;;232.32;96.15;;;17.30;99.90;;;;;;4997558;28;20038;-89
2022/07/21 02:04:05;;;;;;;206.68;91.20;;;17.20;99.90;;;;;;5030342;28;20384;-89
2022/07/21 02:06:31;;;;;;;217.73;94.28;;;17.20;99.90;;;;;;5013616;28;20065;-89
2022/07/21 02:08:57;;;;;;;207.13;90.75;;;17.20;99.90;;;;;;5014904;28;20036;-89
2022/07/21 02:11:23;;;;;;;207.70;93.00;;;17.20;99.90;;;;;;4997010;28;20117;-88
2022/07/21 02:13:49;;;;;;;212.82;95.32;;;17.20;99.90;;;;;;4997013;28;20041;-89
2022/07/21 02:16:15;;;;;;;209.60;94.70;;;17.20;99.90;;;;;;5013228;28;20041;-89
2022/07/21 02:18:41;;;;;;;215.15;93.80;;;17.30;99.90;;;;;;4996615;28;20485;-90
2022/07/21 02:21:07;;;;;;;211.15;94.05;;;17.30;99.90;;;;;;4996322;28;20548;-89
2022/07/21 02:23:33;;;;;;;203.02;94.80;;;17.30;99.90;;;;;;5012561;28;20482;-89
2022/07/21 02:25:59;;;;;;;216.40;95.78;;;17.30;99.90;;;;;;5013580;28;20030;-89
2022/07/21 02:28:26;;;;;;;199.13;96.53;;;17.30;99.90;;;;;;4996145;28;20036;-90
2022/07/21 02:30:52;;;;;;;195.70;94.78;;;17.30;99.90;;;;;;4996362;28;20059;-89
2022/07/21 02:33:18;;;;;;;196.40;91.93;;;17.20;99.90;;;;;;4996133;28;20136;-89
2022/07/21 02:35:44;;;;;;;198.82;92.57;;;17.30;99.90;;;;;;4996368;28;20061;-89
2022/07/21 02:38:11;;;;;;;177.60;85.65;;;17.30;99.90;;;;;;5013363;28;20080;-89
2022/07/21 02:40:37;;;;;;;166.25;83.03;;;17.30;99.90;;;;;;4997046;28;20425;-89
2022/07/21 02:43:05;;;;;;;168.43;81.28;;;17.30;99.90;;;;;;4996579;28;20034;-88
2022/07/21 02:45:31;;;;;;;160.18;80.05;;;17.30;99.90;;;;;;4996683;28;20026;-89
2022/07/21 02:48:03;;;;;;;150.63;77.90;;;17.30;99.90;;;;;;4997298;28;20033;-91
2022/07/21 02:50:32;;;;;;;152.32;81.03;;;17.30;99.90;;;;;;4997170;28;20099;-88
2022/07/21 02:52:59;;;;;;;137.27;76.55;;;17.20;99.90;;;;;;5014600;28;20053;-90
2022/07/21 02:55:26;;;;;;;136.95;74.32;;;17.20;99.90;;;;;;4997322;28;20066;-91
2022/07/21 02:58:13;;;;;;;132.88;74.32;;;17.20;99.90;;;;;;4997830;28;20033;-90
2022/07/21 03:00:54;;;;;;;124.53;71.65;;;17.20;99.90;;;;;;4997393;28;20041;-91
2022/07/21 03:03:21;;;;;;;130.23;71.00;;;17.30;99.90;;;;;;4997546;28;20030;-91
2022/07/21 03:05:48;;;;;;;127.25;71.63;;;17.30;99.90;;;;;;4997791;28;20132;-90
2022/07/21 03:08:14;;;;;;;129.52;68.35;;;17.30;99.90;;;;;;4997745;28;20041;-91
2022/07/21 03:10:40;;;;;;;128.38;72.38;;;17.30;99.90;;;;;;4997241;28;20022;-91
2022/07/21 03:13:07;;;;;;;126.32;70.00;;;17.30;99.90;;;;;;4997432;28;20037;-92
2022/07/21 03:15:33;;;;;;;124.15;70.03;;;17.30;99.90;;;;;;4997550;28;20030;-91
2022/07/21 03:18:45;;;;;;;106.78;64.55;;;17.30;99.90;;;;;;4997403;28;20038;-91
2022/07/21 03:21:11;;;;;;;101.72;61.83;;;17.30;99.90;;;;;;4997383;28;20030;-91
2022/07/21 03:23:37;;;;;;;105.53;61.17;;;17.30;99.90;;;;;;4997257;28;20132;-91
2022/07/21 03:26:03;;;;;;;105.53;62.88;;;17.30;99.90;;;;;;4997315;28;20026;-91
2022/07/21 03:28:29;;;;;;;96.82;60.42;;;17.40;99.90;;;;;;4997102;28;20102;-91
2022/07/21 03:34:41;;;;;;;94.20;58.15;;;17.30;99.90;;;;;;5015184;28;20552;-90
2022/07/21 03:37:07;;;;;;;92.20;57.35;;;17.20;99.90;;;;;;5013483;28;20046;-91
2022/07/21 03:39:33;;;;;;;98.57;58.53;;;17.30;99.90;;;;;;5000210;28;20084;-90
2022/07/21 03:41:58;;;;;;;80.90;53.83;;;17.30;99.90;;;;;;5000820;28;20026;-90
2022/07/21 03:44:24;;;;;;;80.47;49.50;;;17.30;99.90;;;;;;5000600;28;20056;-88
2022/07/21 03:46:50;;;;;;;80.00;52.13;;;17.20;99.90;;;;;;5000212;28;20037;-89
2022/07/21 03:49:15;;;;;;;80.82;51.40;;;17.10;99.90;;;;;;5016495;28;20477;-89
2022/07/21 03:51:41;;;;;;;78.18;52.33;;;17.20;99.90;;;;;;4999842;28;20073;-90
2022/07/21 03:54:07;;;;;;;85.10;54.35;;;17.20;99.90;;;;;;4995340;28;20037;-90
2022/07/21 03:56:32;;;;;;;73.95;48.53;;;17.10;99.90;;;;;;5015624;28;20037;-90
2022/07/21 03:58:58;;;;;;;74.45;49.05;;;17.20;99.90;;;;;;4999577;28;20065;-90
2022/07/21 04:01:24;;;;;;;71.15;46.83;;;17.10;99.90;;;;;;4999224;28;20037;-89
2022/07/21 04:03:49;;;;;;;68.40;46.83;;;17.10;99.90;;;;;;4999637;28;20029;-90
2022/07/21 04:06:15;;;;;;;68.82;46.95;;;17.00;99.90;;;;;;4999394;28;20140;-90
2022/07/21 04:08:41;;;;;;;60.10;41.58;;;17.00;99.90;;;;;;4999425;28;20041;-88
2022/07/21 04:11:38;;;;;;;64.97;45.53;;;17.00;99.90;;;;;;4997723;28;20029;-89
2022/07/21 04:14:04;;;;;;;63.35;42.58;;;16.90;99.90;;;;;;5015008;28;20070;-90
2022/07/21 04:16:29;;;;;;;65.22;42.70;;;16.90;99.90;;;;;;4998225;28;20030;-89
2022/07/21 04:18:55;;;;;;;65.45;44.83;;;17.00;99.90;;;;;;4999461;28;20026;-90
2022/07/21 04:21:21;;;;;;;64.57;44.63;;;17.00;99.90;;;;;;4999765;28;20034;-89
2022/07/21 04:23:46;;;;;;;63.38;43.05;;;17.00;99.90;;;;;;4999391;28;20026;-89
2022/07/21 04:26:12;;;;;;;67.60;44.50;;;17.10;99.90;;;;;;4999558;28;20030;-90
2022/07/21 04:28:38;;;;;;;66.63;44.75;;;17.10;99.90;;;;;;4998622;28;20030;-90
2022/07/21 04:31:03;;;;;;;70.32;45.88;;;17.10;99.90;;;;;;4999533;28;20034;-89
2022/07/21 04:33:29;;;;;;;59.65;41.90;;;17.10;99.90;;;;;;5014576;28;20096;-88
2022/07/21 04:36:13;;;;;;;64.25;43.70;;;17.10;99.90;;;;;;4998299;28;20506;-89
2022/07/21 04:38:39;;;;;;;70.35;46.28;;;17.00;99.90;;;;;;4998459;28;20042;-89
2022/07/21 04:41:05;;;;;;;70.15;46.78;;;16.90;99.90;;;;;;5017043;28;20084;-89
2022/07/21 04:43:30;;;;;;;68.05;46.70;;;17.00;99.90;;;;;;4999125;28;20030;-90
2022/07/21 04:45:56;;;;;;;63.50;45.67;;;17.10;99.90;;;;;;4998964;28;20026;-89
2022/07/21 04:48:22;;;;;;;55.30;39.17;;;17.20;99.90;;;;;;4999045;28;20176;-89
2022/07/21 04:50:47;;;;;;;55.65;40.47;;;17.20;99.90;;;;;;5016240;28;20038;-90
2022/07/21 04:53:13;;;;;;;61.85;40.65;;;17.10;99.90;;;;;;5015180;28;20034;-89
2022/07/21 04:55:39;;;;;;;53.17;35.75;;;17.10;99.90;;;;;;5015431;28;20119;-89
2022/07/21 04:58:04;;;;;;;51.55;35.25;;;17.10;99.90;;;;;;4999213;28;20025;-90
2022/07/21 05:00:30;;;;;;;46.30;35.22;;;17.00;99.90;;;;;;5013609;28;20034;-91
2022/07/21 05:02:56;;;;;;;47.30;34.17;;;17.10;99.90;;;;;;5015208;28;20475;-89
2022/07/21 05:05:23;;;;;;;47.70;33.10;;;17.10;99.90;;;;;;4998893;28;20030;-89
2022/07/21 05:07:49;;;;;;;42.28;32.78;;;17.20;99.90;;;;;;4998858;28;20041;-89
2022/07/21 05:10:16;;;;;;;39.15;27.90;;;17.10;99.90;;;;;;4998219;28;20034;-87
2022/07/21 05:12:41;;;;;;;43.78;30.15;;;17.00;99.90;;;;;;4998633;28;20034;-90
2022/07/21 05:15:11;;;;;;;38.88;29.15;;;17.00;99.90;;;;;;4998419;28;20132;-90
2022/07/21 05:17:37;;;;;;;37.25;27.45;;;17.10;99.90;;;;;;4998545;28;20073;-88
2022/07/21 05:20:04;;;;;;;47.40;31.77;;;17.10;99.90;;;;;;5014480;28;20864;-89
2022/07/21 05:22:30;;;;;;;41.97;29.52;;;17.00;99.90;;;;;;4998197;28;20034;-89
2022/07/21 05:24:56;;;;;;;40.40;30.92;;;17.10;99.90;;;;;;4998095;28;20041;-90
2022/07/21 05:27:21;;;;;;;44.33;31.58;;;17.20;99.90;;;;;;4997557;28;20108;-90
2022/07/21 05:29:47;;;;;;;37.58;26.55;;;17.30;99.90;;;;;;5015061;28;20073;-90
2022/07/21 05:32:13;;;;;;;39.63;28.63;;;17.30;99.90;;;;;;4997857;28;20037;-90
2022/07/21 05:34:38;;;;;;;37.28;27.80;;;17.20;99.90;;;;;;5014048;28;20030;-90
2022/07/21 05:37:04;;;;;;;35.00;25.98;;;17.30;99.90;;;;;;5013970;28;20536;-90
2022/07/21 05:39:30;;;;;;;31.85;24.02;;;17.30;99.90;;;;;;5013983;28;20512;-90
2022/07/21 05:41:56;;;;;;;30.40;24.00;;;17.40;99.90;;;;;;4997754;28;20029;-90
2022/07/21 05:44:21;;;;;;;23.40;19.90;;;17.80;99.90;;;;;;5014588;28;20022;-90
2022/07/21 05:46:47;;;;;;;29.25;21.88;;;18.00;99.90;;;;;;4998141;28;20040;-92
2022/07/21 05:49:13;;;;;;;31.13;21.65;;;18.10;99.90;;;;;;5014294;28;20026;-91
2022/07/21 05:51:38;;;;;;;30.35;22.15;;;17.90;99.90;;;;;;4997762;28;20029;-93
2022/07/21 05:54:04;;;;;;;34.85;23.83;;;17.80;99.90;;;;;;5014131;28;20125;-90
2022/07/21 05:56:30;;;;;;;33.63;23.65;;;17.70;99.90;;;;;;4997674;28;20038;-90
2022/07/21 05:58:56;;;;;;;33.03;25.50;;;17.90;99.90;;;;;;4997769;28;20445;-90
2022/07/21 06:01:46;;;;;;;30.45;24.75;;;18.00;99.90;;;;;;4996806;28;20042;-91
2022/07/21 06:04:13;;;;;;;36.07;24.97;;;18.10;99.90;;;;;;4997439;28;20478;-91
2022/07/21 06:06:38;;;;;;;37.63;23.92;;;18.20;99.90;;;;;;4998152;28;20034;-91
2022/07/21 06:09:04;;;;;;;34.63;24.55;;;18.20;99.90;;;;;;4998273;28;20431;-91
2022/07/21 06:11:30;;;;;;;33.28;25.80;;;18.40;99.90;;;;;;5012627;28;20038;-92
2022/07/21 06:13:55;;;;;;;36.08;26.35;;;18.50;99.90;;;;;;4997509;28;20030;-91
2022/07/21 06:16:21;;;;;;;32.83;24.83;;;18.50;99.90;;;;;;4997834;28;20030;-91
2022/07/21 06:18:47;;;;;;;30.48;24.10;;;18.40;99.90;;;;;;4997471;28;20041;-92
2022/07/21 06:21:12;;;;;;;32.13;24.95;;;18.30;99.90;;;;;;4996698;28;20037;-90
2022/07/21 06:23:38;;;;;;;32.47;24.63;;;18.20;99.90;;;;;;4997114;28;20052;-91
2022/07/21 06:26:04;;;;;;;32.28;23.38;;;18.40;99.90;;;;;;4997000;28;20489;-91
2022/07/21 06:28:30;;;;;;;28.23;23.38;;;18.50;99.90;;;;;;5013473;28;20036;-91
2022/07/21 06:30:55;;;;;;;26.73;21.05;;;18.40;99.90;;;;;;4997365;28;20034;-92
2022/07/21 06:33:21;;;;;;;28.33;20.45;;;18.30;99.90;;;;;;4997369;28;20041;-92
2022/07/21 06:35:47;;;;;;;42.30;19.33;;;18.40;99.90;;;;;;4997259;28;20034;-91
2022/07/21 06:38:13;;;;;;;25.20;19.88;;;18.50;99.90;;;;;;5013425;28;20038;-92
2022/07/21 06:40:39;;;;;;;22.55;18.95;;;18.70;99.90;;;;;;5013405;28;20069;-92
2022/07/21 06:43:04;;;;;;;33.67;21.23;;;19.10;99.90;;;;;;4997270;28;20425;-92
2022/07/21 06:45:30;;;;;;;28.10;19.83;;;19.40;99.90;;;;;;4997364;28;20114;-90
2022/07/21 06:48:04;;;;;;;25.50;20.30;;;19.50;99.90;;;;;;5014907;28;20029;-92
2022/07/21 06:50:30;;;;;;;28.40;21.75;;;19.60;99.90;;;;;;5013730;28;20033;-89
2022/07/21 06:52:55;;;;;;;27.88;19.52;;;19.60;99.90;;;;;;5029363;28;20029;-90
2022/07/21 06:55:21;;;;;;;39.85;28.70;;;19.50;99.90;;;;;;4996823;28;20052;-91
2022/07/21 06:57:47;;;;;;;214.55;112.35;;;19.50;99.90;;;;;;5029615;28;20473;-91
2022/07/21 07:00:13;;;;;;;25.98;18.83;;;19.60;99.90;;;;;;5012882;28;20033;-91
2022/07/21 07:02:39;;;;;;;34.58;17.60;;;19.70;99.90;;;;;;4996418;28;20037;-91
2022/07/21 07:05:14;;;;;;;22.92;17.38;;;20.00;99.90;;;;;;5012280;28;20494;-90
2022/07/21 07:07:40;;;;;;;22.98;18.00;;;19.90;99.90;;;;;;5012303;28;20026;-90
2022/07/21 07:10:06;;;;;;;27.40;17.58;;;20.10;99.90;;;;;;5012494;28;20045;-92
2022/07/21 07:12:32;;;;;;;23.30;18.65;;;20.10;99.90;;;;;;4993605;28;20453;-91
2022/07/21 07:14:58;;;;;;;22.90;16.42;;;20.10;99.90;;;;;;5030190;28;20138;-90
2022/07/21 07:17:24;;;;;;;22.80;17.30;;;20.50;99.90;;;;;;5000239;28;20716;-90
2022/07/21 07:19:50;;;;;;;24.58;17.40;;;20.70;99.90;;;;;;4999979;28;20040;-91
2022/07/21 07:22:16;;;;;;;27.02;17.55;;;20.70;99.90;;;;;;4999872;28;20044;-91
2022/07/21 07:25:19;;;;;;;21.52;17.58;;;20.60;99.90;;;;;;5015410;28;20034;-91
2022/07/21 07:27:49;;;;;;;19.27;15.60;;;20.60;99.90;;;;;;4997872;28;20076;-91
2022/07/21 07:30:16;;;;;;;20.40;15.27;;;20.80;99.90;;;;;;4999536;28;20048;-89
2022/07/21 07:32:42;;;;;;;22.98;16.05;;;20.50;99.90;;;;;;5032721;28;20292;-91
2022/07/21 07:35:10;;;;;;;18.13;14.70;;;20.50;99.90;;;;;;4999406;28;20033;-92
2022/07/21 07:37:40;;;;;;;17.80;13.93;;;20.70;99.90;;;;;;4999677;28;20393;-92
2022/07/21 07:40:09;;;;;;;16.35;12.48;;;20.90;99.90;;;;;;4999712;28;20034;-89
2022/07/21 07:42:36;;;;;;;14.75;12.82;;;21.20;99.90;;;;;;4999547;28;20030;-92
2022/07/21 07:45:03;;;;;;;14.63;12.52;;;21.20;99.90;;;;;;5015566;28;20053;-90
2022/07/21 07:47:29;;;;;;;18.20;13.70;;;21.20;99.90;;;;;;4999318;28;20489;-89
2022/07/21 07:49:55;;;;;;;15.30;12.55;;;21.20;99.90;;;;;;4999616;28;20041;-90
2022/07/21 07:52:21;;;;;;;17.65;12.73;;;21.00;99.90;;;;;;5016137;28;20081;-88
2022/07/21 07:54:46;;;;;;;18.55;12.93;;;20.90;99.90;;;;;;4999202;28;20034;-90
2022/07/21 07:57:12;;;;;;;16.52;13.13;;;21.00;99.90;;;;;;5015462;28;20045;-89
2022/07/21 07:59:38;;;;;;;15.93;12.80;;;21.00;99.90;;;;;;4999007;28;20042;-88
2022/07/21 08:02:04;;;;;;;18.83;12.20;;;21.20;99.90;;;;;;4998745;28;20057;-90
2022/07/21 08:04:29;;;;;;;23.17;12.73;;;21.50;99.90;;;;;;5015222;28;20827;-90
2022/07/21 08:06:55;;;;;;;16.33;10.98;;;22.30;99.90;;;;;;5015469;28;20491;-88
2022/07/21 08:09:21;;;;;;;12.57;10.35;;;23.70;99.90;;;;;;4999008;28;20030;-89
2022/07/21 08:11:47;;;;;;;10.52;8.15;;;25.00;99.90;;;;;;5032034;28;20053;-89
2022/07/21 08:14:14;;;;;;;10.65;8.40;;;26.30;99.90;;;;;;5015140;28;20789;-89
2022/07/21 08:16:41;;;;;;;13.43;8.43;;;26.80;99.90;;;;;;5015359;28;20037;-89
2022/07/21 08:19:07;;;;;;;11.38;8.05;;;26.10;99.90;;;;;;5027099;28;20490;-89
2022/07/21 08:21:33;;;;;;;13.48;9.18;;;25.80;99.90;;;;;;5015158;28;20747;-90
2022/07/21 08:24:00;;;;;;;13.27;9.43;;;25.00;99.90;;;;;;5030430;28;20033;-90
2022/07/21 08:26:26;;;;;;;15.50;9.88;;;24.20;99.90;;;;;;5015053;28;20026;-90
2022/07/21 08:28:57;;;;;;;15.10;10.15;;;23.60;99.90;;;;;;5031012;28;20040;-91
2022/07/21 08:31:23;;;;;;;15.18;9.88;;;22.80;99.90;;;;;;4998216;28;20401;-89
2022/07/21 08:33:50;;;;;;;14.52;9.98;;;22.70;99.90;;;;;;5014458;28;20076;-89
2022/07/21 08:36:16;;;;;;;16.27;9.48;;;23.60;99.90;;;;;;5014924;28;20129;-89
2022/07/21 08:38:42;;;;;;;13.23;9.52;;;24.90;99.90;;;;;;5031378;28;20065;-90
2022/07/21 08:41:08;;;;;;;13.93;8.98;;;26.00;99.90;;;;;;5031169;28;20543;-89
2022/07/21 08:43:35;;;;;;;16.08;9.40;;;26.60;99.90;;;;;;5026997;28;20091;-90
2022/07/21 08:46:00;;;;;;;12.93;9.07;;;26.70;99.90;;;;;;5014400;28;20126;-89
2022/07/21 08:48:29;;;;;;;15.52;9.32;;;27.30;99.90;;;;;;5031188;28;20116;-90
2022/07/21 08:50:56;;;;;;;13.50;8.85;;;28.00;99.90;;;;;;5030840;28;20037;-90
2022/07/21 08:53:23;;;;;;;15.65;9.00;;;28.20;99.90;;;;;;5013847;28;20482;-89
2022/07/21 08:55:49;;;;;;;12.32;10.35;;;26.80;99.90;;;;;;5030797;28;20029;-89
2022/07/21 08:58:15;;;;;;;12.93;9.77;;;25.00;99.90;;;;;;5014365;28;20105;-88
2022/07/21 09:00:44;;;;;;;12.20;10.38;;;23.70;99.90;;;;;;5014475;28;20033;-89
2022/07/21 09:03:20;;;;;;;14.35;9.63;;;22.70;99.90;;;;;;5030633;28;20486;-88
2022/07/21 09:06:11;;;;;;;15.77;9.82;;;22.50;99.90;;;;;;5014358;28;20120;-88
2022/07/21 09:08:45;;;;;;;12.80;9.55;;;23.30;99.90;;;;;;5014172;28;20120;-88
2022/07/21 09:11:22;;;;;;;12.95;9.98;;;24.10;99.90;;;;;;5030366;28;20417;-90
2022/07/21 09:14:10;;;;;;;14.68;9.20;;;24.90;99.90;;;;;;5030538;28;20038;-88
2022/07/21 09:16:43;;;;;;;11.00;8.80;;;26.20;99.90;;;;;;5030396;28;20128;-88
2022/07/21 09:19:22;;;;;;;9.18;7.75;;;26.70;99.90;;;;;;5030516;28;20033;-89
2022/07/21 09:21:50;;;;;;;9.23;8.10;;;26.50;99.90;;;;;;5026902;28;20132;-88
2022/07/21 09:24:40;;;;;;;11.90;7.97;;;27.10;99.90;;;;;;5013684;28;20036;-89
2022/07/21 09:27:14;;;;;;;8.45;7.60;;;27.80;99.90;;;;;;5011729;28;20076;-88
2022/07/21 09:29:52;;;;;;;11.05;8.40;;;27.90;99.90;;;;;;5028913;28;20370;-88
2022/07/21 09:32:21;;;;;;;11.65;9.10;;;26.70;99.90;;;;;;5030036;28;20030;-90
2022/07/21 09:34:59;;;;;;;11.23;9.32;;;25.50;99.90;;;;;;5012731;28;20397;-89
2022/07/21 09:37:26;;;;;;;12.50;8.75;;;25.10;99.90;;;;;;5011912;28;20523;-88
2022/07/21 09:39:57;;;;;;;12.35;8.90;;;24.70;99.90;;;;;;5010666;28;20034;-89
2022/07/21 09:42:36;;;;;;;10.07;8.02;;;24.50;99.90;;;;;;5013345;28;20065;-88
2022/07/21 09:45:09;;;;;;;10.63;8.55;;;23.90;99.90;;;;;;5012816;28;20080;-89
2022/07/21 09:47:38;;;;;;;17.00;9.43;;;23.60;99.90;;;;;;4997022;28;20026;-89
2022/07/21 09:50:06;;;;;;;12.60;8.63;;;23.50;99.90;;;;;;5012696;28;20084;-88
2022/07/21 09:52:33;;;;;;;14.10;9.50;;;23.10;99.90;;;;;;5013148;28;20038;-88
2022/07/21 09:55:01;;;;;;;11.05;9.63;;;22.70;99.90;;;;;;5029005;28;20033;-88
2022/07/21 09:57:28;;;;;;;13.32;9.27;;;22.50;99.90;;;;;;5029511;28;20037;-89
2022/07/21 09:59:54;;;;;;;10.98;8.55;;;22.50;99.90;;;;;;5012590;28;20038;-88
2022/07/21 10:02:26;;;;;;;12.55;9.05;;;22.50;99.90;;;;;;5029791;28;20030;-89
2022/07/21 10:05:08;;;;;;;12.02;9.40;;;22.80;99.90;;;;;;5012871;28;20061;-89
2022/07/21 10:07:38;;;;;;;12.30;8.65;;;22.90;99.90;;;;;;5028758;28;20436;-88
2022/07/21 10:10:04;;;;;;;10.07;8.32;;;22.80;99.90;;;;;;5029181;28;20069;-88
2022/07/21 10:12:30;;;;;;;9.80;8.13;;;22.70;99.90;;;;;;5012660;28;20034;-88
2022/07/21 10:14:56;;;;;;;9.32;7.90;;;22.70;99.90;;;;;;5028502;28;20133;-89
2022/07/21 10:17:23;;;;;;;10.20;7.20;;;23.00;99.90;;;;;;5011561;28;20285;-89
2022/07/21 10:19:52;;;;;;;11.07;7.13;;;23.60;99.90;;;;;;5012377;28;20164;-87
2022/07/21 10:22:24;;;;;;;7.75;6.82;;;24.00;99.90;;;;;;5012383;28;20030;-89
2022/07/21 10:24:50;;;;;;;11.23;7.18;;;24.10;99.90;;;;;;5012159;28;20471;-89
2022/07/21 10:27:15;;;;;;;8.23;7.15;;;24.20;99.90;;;;;;5028898;28;20097;-87
2022/07/21 10:29:47;;;;;;;9.88;7.47;;;24.30;99.90;;;;;;5028756;28;20041;-88
2022/07/21 10:32:15;;;;;;;9.73;6.13;;;24.70;99.90;;;;;;5012097;28;20041;-90
2022/07/21 10:34:41;;;;;;;6.43;5.55;;;24.90;99.90;;;;;;5012128;28;20033;-89
2022/07/21 10:37:06;;;;;;;9.95;5.20;;;24.60;99.90;;;;;;5012514;28;20034;-88
2022/07/21 10:39:33;;;;;;;13.45;6.70;;;25.00;99.90;;;;;;5012545;28;20030;-88
2022/07/21 10:42:01;;;;;;;26.90;17.85;;;25.40;99.90;;;;;;5028783;28;20034;-90
2022/07/21 10:44:27;;;;;;;100.22;58.22;;;25.40;99.90;;;;;;5028133;28;20104;-89
2022/07/21 10:47:17;;;;;;;10.63;7.60;;;25.40;99.90;;;;;;5012809;28;20478;-88
2022/07/21 10:50:07;;;;;;;8.27;7.17;;;25.20;99.90;;;;;;5012075;28;20425;-89
2022/07/21 10:52:39;;;;;;;9.65;7.47;;;25.70;99.90;;;;;;5012099;28;20025;-88
2022/07/21 10:55:13;;;;;;;10.07;6.60;;;26.40;99.90;;;;;;5012371;28;20030;-88
2022/07/21 10:57:41;;;;;;;7.63;6.03;;;26.70;99.90;;;;;;5012082;28;20036;-88
2022/07/21 11:00:24;;;;;;;8.00;6.50;;;27.10;99.90;;;;;;5012314;28;20481;-89
2022/07/21 11:02:54;;;;;;;12.52;7.03;;;27.20;99.90;;;;;;5028427;28;20033;-89
2022/07/21 11:05:20;;;;;;;8.30;6.75;;;26.90;99.90;;;;;;4995724;28;20030;-89
2022/07/21 11:08:08;;;;;;;12.65;7.55;;;27.20;99.90;;;;;;5012034;28;20037;-89
2022/07/21 11:10:36;;;;;;;11.50;7.70;;;26.70;99.90;;;;;;5028524;28;20038;-89
2022/07/21 11:13:02;;;;;;;10.55;7.50;;;25.90;99.90;;;;;;5012002;28;20069;-88
2022/07/21 11:15:56;;;;;;;10.00;6.60;;;26.40;99.90;;;;;;5028665;28;20567;-89
2022/07/21 11:18:25;;;;;;;11.82;7.57;;;26.60;99.90;;;;;;5028179;28;20030;-90
2022/07/21 11:21:17;;;;;;;12.32;7.45;;;26.30;99.90;;;;;;5011592;28;20048;-87
2022/07/21 11:23:49;;;;;;;8.10;6.70;;;25.70;99.90;;;;;;5008849;28;20096;-88
2022/07/21 11:26:22;;;;;;;10.23;8.02;;;26.40;99.90;;;;;;5028500;28;20088;-89
2022/07/21 11:29:06;;;;;;;9.98;7.35;;;26.70;99.90;;;;;;5011784;28;20099;-89
2022/07/21 11:35:19;;;;;;;9.95;7.75;;;26.70;99.90;;;;;;5013433;28;20897;-87
2022/07/21 11:38:04;;;;;;;10.88;8.45;;;25.70;99.90;;;;;;5011805;28;20054;-89
2022/07/21 11:40:29;;;;;;;13.80;7.82;;;25.40;99.90;;;;;;5028042;28;20124;-88
2022/07/21 11:42:55;;;;;;;12.70;8.32;;;25.30;99.90;;;;;;5011231;28;20109;-88
2022/07/21 11:45:25;;;;;;;9.85;8.82;;;25.00;99.90;;;;;;5027598;28;20030;-89
2022/07/21 11:48:46;;;;;;;12.02;8.40;;;24.90;99.90;;;;;;5011112;28;20038;-88
2022/07/21 11:51:12;;;;;;;12.05;8.32;;;24.20;99.90;;;;;;4971432;28;20125;-89
2022/07/21 11:53:44;;;;;;;9.35;8.00;;;24.20;99.90;;;;;;5003598;28;20133;-87
2022/07/21 11:56:16;;;;;;;10.68;8.52;;;25.20;99.90;;;;;;5027877;28;20041;-88
2022/07/21 11:58:43;;;;;;;10.13;8.05;;;25.70;99.90;;;;;;5011842;28;20040;-87
2022/07/21 12:01:10;;;;;;;13.05;8.27;;;26.00;99.90;;;;;;5031785;28;20034;-88
2022/07/21 12:03:48;;;;;;;8.45;7.53;;;26.00;99.90;;;;;;5031766;28;20036;-89
2022/07/21 12:06:15;;;;;;;9.73;7.38;;;26.40;99.90;;;;;;5031760;28;20473;-88
2022/07/21 12:08:42;;;;;;;10.65;7.50;;;26.40;99.90;;;;;;5015344;28;20036;-89
2022/07/21 12:11:10;;;;;;;10.15;7.68;;;26.10;99.90;;;;;;5031848;28;20045;-88
2022/07/21 12:13:56;;;;;;;10.77;7.18;;;26.10;99.90;;;;;;5015099;28;20045;-89
2022/07/21 12:16:22;;;;;;;10.57;7.13;;;26.20;99.90;;;;;;5031691;28;20085;-88
2022/07/21 12:18:49;;;;;;;11.30;6.38;;;26.40;99.90;;;;;;5014651;28;20417;-88
2022/07/21 12:21:15;;;;;;;9.50;7.07;;;26.20;99.90;;;;;;5014716;28;20041;-89
2022/07/21 12:23:41;;;;;;;8.15;6.65;;;26.40;99.90;;;;;;5014552;28;20379;-87
2022/07/21 12:26:20;;;;;;;9.32;7.32;;;26.40;99.90;;;;;;5031592;28;20103;-89
2022/07/21 12:28:46;;;;;;;9.77;7.30;;;25.50;99.90;;;;;;5030607;28;20026;-88
2022/07/21 12:31:20;;;;;;;7.97;6.82;;;25.00;99.90;;;;;;5030848;28;20065;-89
2022/07/21 12:33:47;;;;;;;13.95;7.13;;;25.40;99.90;;;;;;5031011;28;20030;-90
2022/07/21 12:36:13;;;;;;;9.98;7.38;;;25.80;99.90;;;;;;5014339;28;20038;-88
2022/07/21 12:38:46;;;;;;;10.45;6.88;;;25.60;99.90;;;;;;5014475;28;20088;-88
2022/07/21 12:41:14;;;;;;;7.97;6.65;;;25.80;99.90;;;;;;5014754;28;20030;-88
2022/07/21 12:43:40;;;;;;;8.48;6.95;;;25.70;99.90;;;;;;5030564;28;20128;-88
2022/07/21 12:46:15;;;;;;;11.02;7.63;;;25.60;99.90;;;;;;5014461;28;20081;-88
2022/07/21 12:48:41;;;;;;;9.32;5.88;;;26.20;99.90;;;;;;5014643;28;20025;-88
2022/07/21 12:51:12;;;;;;;11.75;7.03;;;26.90;99.90;;;;;;5014000;28;20042;-88